General Leobardo C Ruiz International Airport
MMZC : now visible

Airfield :











YOU CAN JOIN US ON...

 
LOGIN :

Register | Disclaimer

   EN    FR    IT 

 









Legend :    VFR   Marginal VFR   IFR   Intensive IFR   Very Intensive IFR
Visi :
Ceiling :
>= 8 km
>= 3000ft
5 to 8 km
1000 to 3000 ft
1500m to 5 km
500 to 1000 ft
800 to 1500m
200 to 500 ft
< 800m
< 200 ft
Symbols :   Thunderstorms  Fog  Heavy snow  Heavy precipitations  Wind > 20 kt






- Airport Elevation : 7141 ft
- IATA code : ZCL


MMZC - General Leobardo C Ruiz International

CURRENT METAR :
  • 021751Z 20020KT 10SM SCT200 23/02 A3020 RMK 8/001

EXPIRED METARs :
  • 021641Z 20010KT 10SM SCT200 21/01 A3022 RMK 8/001
  • 021540Z 20010KT 10SM SCT200 20/02 A3023 RMK 8/001

TAF TAF MMZC
Valid from the 02 at 18:00 until the 04 at 00:00 UTC


021636Z 0218/0324 26015KT P6SM SKC TX27/0221Z TN10/0312Z
BECMG 0301/0302 00000KT
FM031700 23010KT P6SM SKC



MET'MAP, your aeronautical weather chart ! - Copyright ORBIFLY December 2007 - Disclaimer

ORBIFLY MET'MAP TEAM :

Programming & Development : Alexandra Zaïnal
Concept & original design : Baudouin d'Aumeries
Assistance for programming : Marc-Olivier Méhu
Technical & hardware support : Manuel Goepfert

Contact : metmap@orbifly.com




SOURCES & CREDITS :

   NOAA       Earth
Advisory